Time;durP1;ratioP1;P1;durP2;ratioP2;P2;SDS_P1;SDS_P2;PMS_P1;PMS_P2;Temp;Humidity;BMP_temperature;BMP_pressure;BME280_temperature;BME280_humidity;BME280_pressure;Samples;Min_cycle;Max_cycle;Signal;HPM_P1;HPM_P2
2021/09/28 00:01:38;;;;;;;;;;;;;;;20.79;73.39;101692.50;7285744;19;152173;-51
2021/09/28 00:04:06;;;;;;;;;;;;;;;20.79;73.45;101698.09;7287398;19;151749;-52
2021/09/28 00:06:33;;;;;;;;;;;;;;;20.81;73.67;101695.81;7293224;19;153886;-51
2021/09/28 00:09:00;;;;;;;;;;;;;;;20.81;73.54;101701.44;7287021;19;152444;-51
2021/09/28 00:11:26;;;;;;;;;;;;;;;20.82;73.78;101699.47;7286795;19;151979;-51
2021/09/28 00:13:53;;;;;;;;;;;;;;;20.80;74.05;101696.13;7287195;19;152161;-52
2021/09/28 00:16:20;;;;;;;;;;;;;;;20.79;73.67;101700.06;7287298;19;151810;-50
2021/09/28 00:18:47;;;;;;;;;;;;;;;20.79;74.12;101703.72;7286440;19;152723;-51
2021/09/28 00:21:14;;;;;;;;;;;;;;;20.79;73.80;101700.91;7284761;19;154120;-52
2021/09/28 00:23:41;;;;;;;;;;;;;;;20.79;73.97;101700.06;7288424;19;151741;-51
2021/09/28 00:26:08;;;;;;;;;;;;;;;20.79;74.06;101698.09;7294395;19;153648;-52
2021/09/28 00:28:34;;;;;;;;;;;;;;;20.81;74.21;101700.59;7287934;19;151623;-51
2021/09/28 00:31:01;;;;;;;;;;;;;;;20.79;74.26;101703.72;7288006;19;152743;-51
2021/09/28 00:33:28;;;;;;;;;;;;;;;20.78;74.50;101699.22;7286702;19;152071;-51
2021/09/28 00:35:56;;;;;;;;;;;;;;;20.79;74.59;101698.09;7285161;19;151795;-51
2021/09/28 00:38:23;;;;;;;;;;;;;;;20.78;74.33;101698.38;7284384;19;153943;-51
2021/09/28 00:40:49;;;;;;;;;;;;;;;20.79;74.68;101700.91;7284308;19;152542;-50
2021/09/28 00:43:16;;;;;;;;;;;;;;;20.78;74.60;101699.22;7286664;19;152094;-52
2021/09/28 00:45:43;;;;;;;;;;;;;;;20.77;75.10;101696.69;7287135;19;153234;-51
2021/09/28 00:48:10;;;;;;;;;;;;;;;20.74;74.96;101689.72;7293100;19;153147;-52
2021/09/28 00:50:37;;;;;;;;;;;;;;;20.77;75.09;101703.16;7285704;19;153403;-51
2021/09/28 00:53:04;;;;;;;;;;;;;;;20.75;74.81;101696.16;7283716;19;154206;-50
2021/09/28 00:55:31;;;;;;;;;;;;;;;20.79;75.23;101703.72;7287692;19;151631;-52
2021/09/28 00:58:02;;;;;;;;;;;;;;;20.75;75.36;101702.63;7285448;19;152124;-51
2021/09/28 01:00:30;;;;;;;;;;;;;;;20.76;75.25;101701.47;7279695;19;153648;-51
2021/09/28 01:02:57;;;;;;;;;;;;;;;20.77;75.19;101703.16;7284791;19;151682;-52
2021/09/28 01:05:24;;;;;;;;;;;;;;;20.73;74.97;101702.06;7287362;19;153466;-51
2021/09/28 01:07:51;;;;;;;;;;;;;;;20.74;75.26;101700.94;7284170;19;153208;-51
2021/09/28 01:10:18;;;;;;;;;;;;;;;20.77;75.28;101693.91;7295127;19;151972;-52
2021/09/28 01:12:45;;;;;;;;;;;;;;;20.74;75.25;101702.91;7283760;19;153987;-52
2021/09/28 01:15:12;;;;;;;;;;;;;;;20.73;75.38;101696.44;7286279;19;151905;-52
2021/09/28 01:17:39;;;;;;;;;;;;;;;20.72;75.24;101691.97;7285227;19;154017;-50
2021/09/28 01:20:06;;;;;;;;;;;;;;;20.73;75.31;101688.03;7284173;19;154266;-51
2021/09/28 01:22:33;;;;;;;;;;;;;;;20.74;74.92;101692.53;7286965;19;151555;-52
2021/09/28 01:25:00;;;;;;;;;;;;;;;20.72;75.26;101691.97;7286520;19;153166;-52
2021/09/28 01:27:27;;;;;;;;;;;;;;;20.72;75.09;101691.97;7283099;19;152232;-50
2021/09/28 01:29:53;;;;;;;;;;;;;;;20.70;75.49;101683.00;7286296;19;151880;-51
2021/09/28 01:32:20;;;;;;;;;;;;;;;20.72;74.99;101686.34;7292801;19;152751;-52
2021/09/28 01:34:47;;;;;;;;;;;;;;;20.72;75.13;101685.50;7286957;19;151563;-51
2021/09/28 01:37:14;;;;;;;;;;;;;;;20.70;75.30;101676.53;7285724;19;152225;-51
2021/09/28 01:39:41;;;;;;;;;;;;;;;20.70;75.53;101682.16;7284300;19;153548;-51
2021/09/28 01:42:08;;;;;;;;;;;;;;;20.69;75.68;101672.91;7284252;19;151861;-52
2021/09/28 01:44:34;;;;;;;;;;;;;;;20.67;75.84;101671.53;7286628;19;153633;-51
2021/09/28 01:47:01;;;;;;;;;;;;;;;20.69;75.69;101674.88;7283789;19;153653;-51
2021/09/28 01:49:28;;;;;;;;;;;;;;;20.70;75.66;101670.94;7283954;19;152526;-51
2021/09/28 01:51:55;;;;;;;;;;;;;;;20.68;75.99;101665.59;7286096;19;153068;-51
2021/09/28 01:54:21;;;;;;;;;;;;;;;20.67;76.26;101669.53;7289398;19;154509;-51
2021/09/28 01:56:48;;;;;;;;;;;;;;;20.70;75.75;101668.97;7283763;19;153561;-53
2021/09/28 01:59:15;;;;;;;;;;;;;;;20.70;75.80;101663.34;7281019;19;153386;-52
2021/09/28 02:01:42;;;;;;;;;;;;;;;20.69;75.96;101666.44;7280841;19;152028;-52
2021/09/28 02:04:09;;;;;;;;;;;;;;;20.66;76.04;101667.03;7286333;19;152600;-51
2021/09/28 02:06:38;;;;;;;;;;;;;;;20.68;76.17;101668.41;7283719;19;153952;-52
2021/09/28 02:09:06;;;;;;;;;;;;;;;20.68;76.19;101671.22;7285763;19;151719;-52
2021/09/28 02:11:34;;;;;;;;;;;;;;;20.67;76.41;101661.09;7283998;19;152689;-52
2021/09/28 02:14:00;;;;;;;;;;;;;;;20.69;76.34;101669.25;7283206;19;153404;-52
2021/09/28 02:16:27;;;;;;;;;;;;;;;20.65;76.58;101666.19;7290811;19;151607;-52
2021/09/28 02:18:54;;;;;;;;;;;;;;;20.67;76.32;101660.28;7283480;19;154224;-51
2021/09/28 02:21:21;;;;;;;;;;;;;;;20.66;76.72;101676.31;7282774;19;152133;-52
2021/09/28 02:23:48;;;;;;;;;;;;;;;20.64;76.37;101672.09;7285139;19;153565;-51
2021/09/28 02:26:15;;;;;;;;;;;;;;;20.66;76.30;101678.25;7281898;19;153793;-52
2021/09/28 02:28:42;;;;;;;;;;;;;;;20.64;76.47;101663.66;7281369;19;152911;-51
2021/09/28 02:31:08;;;;;;;;;;;;;;;20.65;76.99;101663.38;7282701;19;153603;-52
2021/09/28 02:33:35;;;;;;;;;;;;;;;20.64;76.81;101660.84;7283080;19;153810;-52
2021/09/28 02:36:02;;;;;;;;;;;;;;;20.64;77.00;101666.47;7292776;19;151772;-53
2021/09/28 02:38:29;;;;;;;;;;;;;;;20.65;76.72;101656.94;7281170;19;153840;-52
2021/09/28 02:40:56;;;;;;;;;;;;;;;20.67;77.01;101663.09;7282036;19;152956;-52
2021/09/28 02:43:22;;;;;;;;;;;;;;;20.67;76.91;101671.53;7285137;19;152704;-52
2021/09/28 02:45:50;;;;;;;;;;;;;;;20.65;76.61;101663.38;7279446;19;153077;-52
2021/09/28 02:48:17;;;;;;;;;;;;;;;20.69;76.36;101661.66;7285123;19;152825;-51
2021/09/28 02:50:44;;;;;;;;;;;;;;;20.68;76.33;101668.41;7282613;19;153415;-50
2021/09/28 02:53:11;;;;;;;;;;;;;;;20.66;76.97;101676.31;7282501;19;153332;-52
2021/09/28 02:55:38;;;;;;;;;;;;;;;20.65;77.02;101668.16;7284736;19;152003;-53
2021/09/28 02:58:05;;;;;;;;;;;;;;;20.63;77.01;101671.25;7287605;19;153689;-51
2021/09/28 03:00:32;;;;;;;;;;;;;;;20.64;77.02;101677.69;7284049;19;152525;-51
2021/09/28 03:02:59;;;;;;;;;;;;;;;20.64;77.03;101672.09;7278448;19;153422;-52
2021/09/28 03:05:26;;;;;;;;;;;;;;;20.63;77.11;101676.03;7282114;19;154347;-52
2021/09/28 03:07:53;;;;;;;;;;;;;;;20.61;77.23;101673.53;7287898;19;151750;-52
2021/09/28 03:10:20;;;;;;;;;;;;;;;20.62;77.11;101672.41;7290468;19;153196;-50
2021/09/28 03:12:47;;;;;;;;;;;;;;;20.63;76.85;101661.97;7289357;19;153926;-51
2021/09/28 03:15:13;;;;;;;;;;;;;;;20.63;76.66;101667.59;7289282;19;151995;-51
2021/09/28 03:17:40;;;;;;;;;;;;;;;20.61;76.98;101670.72;7289090;19;153340;-51
2021/09/28 03:20:07;;;;;;;;;;;;;;;20.61;77.33;101662.28;7295351;19;152160;-52
2021/09/28 03:22:35;;;;;;;;;;;;;;;20.60;77.38;101666.22;7286137;19;152760;-54
2021/09/28 03:25:02;;;;;;;;;;;;;;;20.60;77.14;101665.38;7286247;19;152294;-52
2021/09/28 03:27:29;;;;;;;;;;;;;;;20.60;77.08;101665.38;7290537;19;151912;-52
2021/09/28 03:29:56;;;;;;;;;;;;;;;20.61;77.20;101670.72;7290534;19;153500;-51
2021/09/28 03:32:23;;;;;;;;;;;;;;;20.60;77.14;101659.75;7288571;19;153374;-51
2021/09/28 03:34:50;;;;;;;;;;;;;;;20.59;77.75;101658.94;7287760;19;152020;-52
2021/09/28 03:37:17;;;;;;;;;;;;;;;20.59;77.40;101670.16;7290048;19;152634;-51
2021/09/28 03:39:43;;;;;;;;;;;;;;;20.59;77.22;101669.31;7289595;19;153986;-51
2021/09/28 03:42:11;;;;;;;;;;;;;;;20.59;77.58;101670.16;7293196;19;152153;-51
2021/09/28 03:44:38;;;;;;;;;;;;;;;20.58;77.94;101668.47;7287162;19;155511;-52
2021/09/28 03:47:05;;;;;;;;;;;;;;;20.58;77.59;101668.47;7289628;19;151963;-52
2021/09/28 03:49:31;;;;;;;;;;;;;;;20.57;77.40;101666.81;7289164;19;153004;-53
2021/09/28 03:51:58;;;;;;;;;;;;;;;20.56;77.67;101667.09;7288313;19;153637;-52
2021/09/28 03:54:25;;;;;;;;;;;;;;;20.55;77.39;101674.69;7287372;19;151700;-51
2021/09/28 03:56:52;;;;;;;;;;;;;;;20.55;77.83;101677.47;7287224;19;152728;-52
2021/09/28 03:59:18;;;;;;;;;;;;;;;20.54;77.75;101666.53;7286581;19;153721;-51
2021/09/28 04:01:45;;;;;;;;;;;;;;;20.56;77.94;101669.91;7285476;19;151660;-52
2021/09/28 04:04:12;;;;;;;;;;;;;;;20.55;77.91;101669.06;7291147;19;155111;-51
2021/09/28 04:06:39;;;;;;;;;;;;;;;20.54;77.91;101667.38;7289512;19;151833;-51
2021/09/28 04:09:06;;;;;;;;;;;;;;;20.52;77.57;101669.66;7286306;19;151905;-51
2021/09/28 04:11:33;;;;;;;;;;;;;;;20.52;78.06;101668.81;7288217;19;153389;-52
2021/09/28 04:13:59;;;;;;;;;;;;;;;20.52;78.02;101663.19;7289346;19;151919;-52
2021/09/28 04:16:28;;;;;;;;;;;;;;;20.50;77.98;101666.28;7288311;19;153501;-51
2021/09/28 04:18:55;;;;;;;;;;;;;;;20.50;77.59;101669.09;7286272;19;153832;-52
2021/09/28 04:21:22;;;;;;;;;;;;;;;20.50;78.15;101666.28;7285978;19;151607;-52
2021/09/28 04:23:51;;;;;;;;;;;;;;;20.50;77.75;101669.09;7288815;19;151695;-51
2021/09/28 04:26:18;;;;;;;;;;;;;;;20.49;77.92;101667.41;7294558;19;152035;-52
2021/09/28 04:28:45;;;;;;;;;;;;;;;20.48;77.80;101679.78;7289149;19;153513;-51
2021/09/28 04:31:14;;;;;;;;;;;;;;;20.48;78.07;101671.38;7286433;19;153303;-52
2021/09/28 04:33:42;;;;;;;;;;;;;;;20.48;77.84;101667.72;7288356;19;151751;-50
2021/09/28 04:36:09;;;;;;;;;;;;;;;20.47;78.28;101666.03;7288522;19;153551;-51
2021/09/28 04:38:36;;;;;;;;;;;;;;;20.45;77.79;101660.69;7285633;19;152174;-52
2021/09/28 04:41:02;;;;;;;;;;;;;;;20.46;78.43;101664.34;7285257;19;151690;-52
2021/09/28 04:43:29;;;;;;;;;;;;;;;20.45;78.32;101659.84;7287992;19;152453;-52
2021/09/28 04:45:56;;;;;;;;;;;;;;;20.45;78.24;101657.88;7295112;19;153375;-51
2021/09/28 04:48:23;;;;;;;;;;;;;;;20.44;78.28;101661.84;7288552;19;152687;-51
2021/09/28 04:50:52;;;;;;;;;;;;;;;20.44;77.82;101661.84;7285304;19;152635;-52
2021/09/28 04:53:20;;;;;;;;;;;;;;;20.43;77.94;101660.16;7286406;19;151748;-51
2021/09/28 04:55:47;;;;;;;;;;;;;;;20.44;78.26;101655.41;7286937;19;153134;-52
2021/09/28 04:58:14;;;;;;;;;;;;;;;20.42;78.10;101652.88;7283170;19;154086;-52
2021/09/28 05:00:41;;;;;;;;;;;;;;;20.43;78.26;101657.38;7287922;19;152242;-51
2021/09/28 05:03:08;;;;;;;;;;;;;;;20.41;78.33;101651.19;7281627;19;152037;-52
2021/09/28 05:05:35;;;;;;;;;;;;;;;20.41;78.01;101651.19;7281771;19;153690;-52
2021/09/28 05:08:02;;;;;;;;;;;;;;;20.40;78.25;101650.34;7295364;19;152023;-51
2021/09/28 05:10:28;;;;;;;;;;;;;;;20.40;78.17;101653.16;7284883;19;153665;-51
2021/09/28 05:12:55;;;;;;;;;;;;;;;20.42;78.54;101650.91;7286567;19;151827;-52
2021/09/28 05:15:22;;;;;;;;;;;;;;;20.41;78.02;101654.84;7284914;19;153113;-50
2021/09/28 05:17:49;;;;;;;;;;;;;;;20.41;78.60;101654.00;7285341;19;153423;-51
2021/09/28 05:20:16;;;;;;;;;;;;;;;20.39;78.27;101648.69;7285047;19;151940;-52
2021/09/28 05:22:43;;;;;;;;;;;;;;;20.39;78.42;101656.28;7284009;19;153067;-51
2021/09/28 05:25:10;;;;;;;;;;;;;;;20.39;78.20;101657.13;7284823;19;153516;-52
2021/09/28 05:27:37;;;;;;;;;;;;;;;20.38;78.48;101655.44;7285165;19;152443;-51
2021/09/28 05:30:04;;;;;;;;;;;;;;;20.38;78.13;101651.78;7288425;19;153286;-51
2021/09/28 05:32:31;;;;;;;;;;;;;;;20.41;78.47;101654.84;7285516;19;152035;-52
2021/09/28 05:34:58;;;;;;;;;;;;;;;20.40;78.29;101652.31;7285274;19;151852;-51
2021/09/28 05:37:25;;;;;;;;;;;;;;;20.44;78.76;101658.22;7286032;19;153272;-51
2021/09/28 05:39:51;;;;;;;;;;;;;;;20.51;78.56;101651.13;7286344;19;151998;-52
2021/09/28 05:42:18;;;;;;;;;;;;;;;20.55;78.56;101654.19;7283124;19;152608;-52
2021/09/28 05:44:45;;;;;;;;;;;;;;;20.59;78.66;101649.66;7283178;19;152885;-51
2021/09/28 05:47:12;;;;;;;;;;;;;;;20.64;78.90;101655.25;7283559;19;151850;-51
2021/09/28 05:49:39;;;;;;;;;;;;;;;20.67;79.32;101658.28;7286541;19;152909;-52
2021/09/28 05:52:08;;;;;;;;;;;;;;;20.71;79.59;101650.16;7292725;19;153421;-50
2021/09/28 05:54:40;;;;;;;;;;;;;;;20.75;80.20;101645.63;7285986;19;153205;-51
2021/09/28 05:57:07;;;;;;;;;;;;;;;20.79;80.47;101644.75;7284945;19;154040;-53
2021/09/28 05:59:34;;;;;;;;;;;;;;;20.84;80.23;101644.72;7282735;19;151575;-52
2021/09/28 06:02:01;;;;;;;;;;;;;;;20.92;80.56;101648.00;7285536;19;152753;-51
2021/09/28 06:04:28;;;;;;;;;;;;;;;20.98;80.37;101638.41;7282373;19;152423;-52
2021/09/28 06:06:55;;;;;;;;;;;;;;;21.04;80.82;101640.84;7282869;19;151844;-52
2021/09/28 06:09:22;;;;;;;;;;;;;;;21.10;80.05;101636.03;7283762;19;153340;-51
2021/09/28 06:11:49;;;;;;;;;;;;;;;21.16;80.25;101638.53;7284436;19;154434;-52
2021/09/28 06:14:16;;;;;;;;;;;;;;;21.23;80.51;101641.00;7293029;19;151773;-51
2021/09/28 06:16:42;;;;;;;;;;;;;;;21.29;80.42;101640.66;7283822;19;153933;-51
2021/09/28 06:19:09;;;;;;;;;;;;;;;21.36;80.20;101633.81;7283189;19;151955;-52
2021/09/28 06:21:40;;;;;;;;;;;;;;;21.44;80.69;101638.81;7284425;19;154313;-51
2021/09/28 06:24:07;;;;;;;;;;;;;;;21.50;80.49;101640.41;7282113;19;154859;-53
2021/09/28 06:26:34;;;;;;;;;;;;;;;21.54;79.92;101639.53;7283042;19;151867;-52
2021/09/28 06:29:01;;;;;;;;;;;;;;;21.61;79.63;101642.00;7283687;19;153440;-51
2021/09/28 06:31:28;;;;;;;;;;;;;;;21.66;79.35;101644.75;7283845;19;153936;-52
2021/09/28 06:33:55;;;;;;;;;;;;;;;21.69;78.86;101645.00;7292336;19;151886;-52
2021/09/28 06:36:21;;;;;;;;;;;;;;;21.74;79.12;101641.28;7282066;19;153657;-51
2021/09/28 06:38:48;;;;;;;;;;;;;;;21.78;79.35;101644.31;7285160;19;151553;-52
2021/09/28 06:41:15;;;;;;;;;;;;;;;21.81;79.04;101638.09;7286762;19;152726;-51
2021/09/28 06:43:42;;;;;;;;;;;;;;;21.84;78.83;101638.34;7287687;19;153706;-52
2021/09/28 06:46:09;;;;;;;;;;;;;;;21.88;78.40;101635.75;7290850;19;151774;-51
2021/09/28 06:48:36;;;;;;;;;;;;;;;21.92;79.13;101634.00;7291432;19;152798;-52
2021/09/28 06:51:03;;;;;;;;;;;;;;;21.95;78.30;101628.66;7287025;19;152202;-51
2021/09/28 06:53:32;;;;;;;;;;;;;;;21.97;78.16;101623.56;7289728;19;152048;-51
2021/09/28 06:55:59;;;;;;;;;;;;;;;21.99;77.77;101626.91;7297019;19;152625;-51
2021/09/28 06:58:27;;;;;;;;;;;;;;;22.00;77.04;101628.59;7288933;19;151992;-51
2021/09/28 07:00:54;;;;;;;;;;;;;;;22.02;76.54;101620.69;7290180;19;152009;-51
2021/09/28 07:03:21;;;;;;;;;;;;;;;22.04;76.53;101632.47;7286206;19;152123;-51
2021/09/28 07:05:48;;;;;;;;;;;;;;;22.05;76.43;101627.69;7286268;19;153165;-50
2021/09/28 07:08:16;;;;;;;;;;;;;;;22.05;75.79;101624.88;7285792;19;153154;-51
2021/09/28 07:10:43;;;;;;;;;;;;;;;22.04;74.02;101621.22;7287299;19;153534;-50
2021/09/28 07:13:10;;;;;;;;;;;;;;;21.94;73.11;101624.16;7290718;19;151748;-50
2021/09/28 07:15:37;;;;;;;;;;;;;;;21.61;67.94;101613.88;7289098;19;152690;-51
2021/09/28 07:18:07;;;;;;;;;;;;;;;21.44;67.52;101619.16;7295977;19;153428;-50
2021/09/28 07:20:36;;;;;;;;;;;;;;;21.30;67.53;101622.63;7289209;19;153217;-51
2021/09/28 07:23:03;;;;;;;;;;;;;;;21.18;67.10;101621.38;7285256;19;153246;-50
2021/09/28 07:25:31;;;;;;;;;;;;;;;21.11;66.95;101618.06;7288056;19;151985;-51
2021/09/28 07:28:00;;;;;;;;;;;;;;;21.01;66.71;101624.59;7288665;19;153244;-51
2021/09/28 07:30:27;;;;;;;;;;;;;;;20.94;67.12;101620.47;7286005;19;154285;-50
2021/09/28 07:32:54;;;;;;;;;;;;;;;20.84;67.46;101625.03;7289747;19;152179;-50
2021/09/28 07:35:21;;;;;;;;;;;;;;;20.81;66.60;101627.56;7289541;19;151908;-52
2021/09/28 07:37:51;;;;;;;;;;;;;;;20.84;67.29;101613.81;7287160;19;152189;-51
2021/09/28 07:40:18;;;;;;;;;;;;;;;21.07;68.59;101620.63;7297598;19;151852;-51
2021/09/28 07:42:46;;;;;;;;;;;;;;;21.16;68.81;101615.22;7285110;19;153877;-51
2021/09/28 07:45:13;;;;;;;;;;;;;;;21.22;69.02;101616.81;7289670;19;152281;-51
2021/09/28 07:47:40;;;;;;;;;;;;;;;21.26;69.10;101612.28;7289699;19;153539;-51
2021/09/28 07:50:08;;;;;;;;;;;;;;;21.29;69.78;101614.53;7285961;19;153910;-51
2021/09/28 07:52:35;;;;;;;;;;;;;;;21.32;69.85;101608.28;7286978;19;151949;-56
2021/09/28 07:55:01;;;;;;;;;;;;;;;21.32;70.17;101604.63;7288060;19;152887;-51
2021/09/28 07:57:28;;;;;;;;;;;;;;;21.33;70.40;101614.75;7287611;19;153993;-51
2021/09/28 07:59:55;;;;;;;;;;;;;;;21.34;70.45;101613.63;7289952;19;152043;-51
2021/09/28 08:02:23;;;;;;;;;;;;;;;21.35;70.65;101616.13;7295178;19;153208;-51
2021/09/28 08:04:50;;;;;;;;;;;;;;;21.36;71.03;101606.56;7288698;19;151779;-51
2021/09/28 08:07:17;;;;;;;;;;;;;;;21.36;70.79;101609.38;7285801;19;153658;-52
2021/09/28 08:09:44;;;;;;;;;;;;;;;21.41;71.12;101614.94;7283727;19;153416;-51
2021/09/28 08:12:11;;;;;;;;;;;;;;;21.40;71.56;101610.44;7285843;19;152969;-50
2021/09/28 08:14:39;;;;;;;;;;;;;;;21.43;71.49;101607.06;7287099;19;153291;-52
2021/09/28 08:17:05;;;;;;;;;;;;;;;21.46;71.31;101614.88;7288066;19;153304;-51
2021/09/28 08:19:33;;;;;;;;;;;;;;;21.46;71.82;101614.03;7286054;19;152305;-51
2021/09/28 08:22:00;;;;;;;;;;;;;;;21.46;71.83;101606.44;7287699;19;153291;-52
2021/09/28 08:24:31;;;;;;;;;;;;;;;21.44;71.83;101605.09;7290934;19;154482;-51
2021/09/28 08:29:29;;;;;;;;;;;;;;;21.41;71.88;101608.47;7286491;19;153380;-51
2021/09/28 08:31:56;;;;;;;;;;;;;;;21.39;71.73;101591.94;7283899;19;152151;-52
2021/09/28 08:34:23;;;;;;;;;;;;;;;21.40;71.92;101601.16;7287365;19;153398;-52
2021/09/28 08:36:50;;;;;;;;;;;;;;;21.39;71.73;101600.34;7287448;19;153283;-51
2021/09/28 08:39:17;;;;;;;;;;;;;;;21.37;71.85;101593.34;7285663;19;151999;-51
2021/09/28 08:41:45;;;;;;;;;;;;;;;21.35;71.78;101606.88;7286209;19;151721;-51
2021/09/28 08:44:13;;;;;;;;;;;;;;;21.33;71.45;101597.88;7290537;19;152317;-52
2021/09/28 08:46:40;;;;;;;;;;;;;;;21.29;71.48;101600.47;7286280;19;153391;-51
2021/09/28 08:49:08;;;;;;;;;;;;;;;21.27;71.43;101588.66;7284464;19;152606;-52
2021/09/28 08:51:36;;;;;;;;;;;;;;;21.26;71.56;101589.78;7287552;19;152014;-52
2021/09/28 08:54:03;;;;;;;;;;;;;;;21.24;71.39;101594.91;7288313;19;153175;-52
2021/09/28 08:56:30;;;;;;;;;;;;;;;21.23;71.64;101594.06;7286991;19;153218;-52
2021/09/28 08:59:02;;;;;;;;;;;;;;;21.21;71.49;101590.69;7283113;19;151787;-51
2021/09/28 09:01:29;;;;;;;;;;;;;;;21.22;71.48;101588.72;7287186;19;152336;-51
2021/09/28 09:04:13;;;;;;;;;;;;;;;21.20;71.33;101583.41;7281672;19;153919;-52
2021/09/28 09:06:39;;;;;;;;;;;;;;;21.19;71.58;101587.34;7292219;19;152140;-51
2021/09/28 09:09:06;;;;;;;;;;;;;;;21.21;71.59;101590.69;7280961;19;153931;-51
2021/09/28 09:11:35;;;;;;;;;;;;;;;21.19;71.10;101583.69;7287008;19;151718;-51
2021/09/28 09:14:10;;;;;;;;;;;;;;;21.20;71.15;101579.75;7285901;19;152664;-50
2021/09/28 09:16:37;;;;;;;;;;;;;;;21.17;71.46;101574.72;7286637;19;153435;-51
2021/09/28 09:19:08;;;;;;;;;;;;;;;21.15;71.88;101569.41;7284761;19;152861;-51
2021/09/28 09:21:38;;;;;;;;;;;;;;;21.15;71.67;101577.00;7289020;19;152691;-50
2021/09/28 09:24:04;;;;;;;;;;;;;;;21.18;71.91;101570.78;7283637;19;152706;-52
2021/09/28 09:26:31;;;;;;;;;;;;;;;21.15;71.82;101569.41;7287638;19;151757;-51
2021/09/28 09:28:59;;;;;;;;;;;;;;;21.14;71.90;101566.91;7292164;19;152833;-52
2021/09/28 09:31:30;;;;;;;;;;;;;;;21.15;71.58;101566.59;7287891;19;152054;-51
2021/09/28 09:33:59;;;;;;;;;;;;;;;21.17;71.78;101564.31;7285004;19;154002;-51
2021/09/28 09:36:27;;;;;;;;;;;;;;;21.15;71.73;101562.97;7286324;19;153425;-52
2021/09/28 09:38:55;;;;;;;;;;;;;;;21.13;71.94;101552.00;7285508;19;151644;-52
2021/09/28 09:41:30;;;;;;;;;;;;;;;21.12;71.96;101546.66;7285036;19;152723;-51
2021/09/28 09:44:00;;;;;;;;;;;;;;;21.12;72.29;101553.09;7283365;19;153196;-52
2021/09/28 09:46:38;;;;;;;;;;;;;;;21.12;72.06;101552.28;7285503;19;152117;-51
2021/09/28 09:49:06;;;;;;;;;;;;;;;21.13;72.07;101551.16;7284241;19;152713;-52
2021/09/28 09:51:36;;;;;;;;;;;;;;;21.10;72.29;101549.75;7292939;19;153144;-51
2021/09/28 09:54:03;;;;;;;;;;;;;;;21.09;72.58;101552.88;7287063;19;153105;-52
2021/09/28 09:56:33;;;;;;;;;;;;;;;21.10;72.65;101546.13;7283864;19;153281;-51
2021/09/28 09:59:00;;;;;;;;;;;;;;;21.08;72.35;101539.94;7284212;19;152511;-52
2021/09/28 10:01:27;;;;;;;;;;;;;;;21.07;72.44;101530.72;7285456;19;151901;-52
2021/09/28 10:03:54;;;;;;;;;;;;;;;21.08;72.14;101526.72;7282845;19;152268;-51
2021/09/28 10:06:21;;;;;;;;;;;;;;;21.10;71.87;101532.06;7286683;19;151728;-52
2021/09/28 10:08:47;;;;;;;;;;;;;;;21.10;71.94;101523.63;7281233;19;151688;-52
2021/09/28 10:11:15;;;;;;;;;;;;;;;21.19;72.35;101530.31;7280579;19;153247;-52
2021/09/28 10:13:45;;;;;;;;;;;;;;;21.18;72.24;101518.22;7291050;19;152060;-53
2021/09/28 10:16:15;;;;;;;;;;;;;;;21.12;72.28;101535.44;7282904;19;153614;-53
2021/09/28 10:18:42;;;;;;;;;;;;;;;21.10;72.08;101520.81;7284011;19;152768;-52
2021/09/28 10:21:11;;;;;;;;;;;;;;;21.10;72.02;101541.34;7278275;19;153260;-53
2021/09/28 10:23:38;;;;;;;;;;;;;;;21.10;71.80;101521.66;7279569;19;152874;-52
2021/09/28 10:26:14;;;;;;;;;;;;;;;21.07;71.61;101511.03;7286011;19;151534;-52
2021/09/28 10:28:41;;;;;;;;;;;;;;;21.04;72.00;101502.34;7285533;19;153695;-53
2021/09/28 10:31:11;;;;;;;;;;;;;;;21.07;72.32;101496.16;7282424;19;154449;-52
2021/09/28 10:33:39;;;;;;;;;;;;;;;21.07;72.39;101493.34;7284010;19;151909;-52
2021/09/28 10:36:14;;;;;;;;;;;;;;;21.09;72.53;101482.63;7291599;19;152104;-53
2021/09/28 10:38:46;;;;;;;;;;;;;;;21.08;72.56;101487.41;7283960;19;151801;-52
2021/09/28 10:41:16;;;;;;;;;;;;;;;21.07;72.80;101484.91;7282950;19;153329;-52
2021/09/28 10:43:43;;;;;;;;;;;;;;;21.05;72.64;101473.97;7279959;19;153860;-53
2021/09/28 10:46:29;;;;;;;;;;;;;;;21.04;72.47;101477.91;7282721;19;152000;-53
2021/09/28 10:49:16;;;;;;;;;;;;;;;21.04;72.81;101479.88;7283585;19;153820;-53
2021/09/28 10:51:43;;;;;;;;;;;;;;;20.98;72.82;101484.72;7281780;19;152160;-53
2021/09/28 10:54:10;;;;;;;;;;;;;;;20.98;72.78;101481.09;7284682;19;152084;-52
2021/09/28 10:56:49;;;;;;;;;;;;;;;21.01;73.46;101488.91;7290696;19;153312;-53
2021/09/28 10:59:15;;;;;;;;;;;;;;;20.96;74.13;101483.34;7281049;19;151977;-52
2021/09/28 11:02:02;;;;;;;;;;;;;;;20.93;74.05;101462.31;7284605;19;152907;-53
2021/09/28 11:04:29;;;;;;;;;;;;;;;20.95;74.26;101459.19;7279109;19;154006;-52
2021/09/28 11:06:59;;;;;;;;;;;;;;;20.95;73.80;101457.22;7281752;19;151606;-52
2021/09/28 11:09:42;;;;;;;;;;;;;;;20.96;74.31;101455.25;7280847;19;153291;-53
2021/09/28 11:12:09;;;;;;;;;;;;;;;20.96;74.11;101452.44;7277832;19;153933;-52
2021/09/28 11:14:37;;;;;;;;;;;;;;;20.99;73.83;101449.84;7281739;19;151851;-52
2021/09/28 11:17:11;;;;;;;;;;;;;;;20.99;74.02;101449.84;7281760;19;153348;-52
2021/09/28 11:19:38;;;;;;;;;;;;;;;21.00;74.44;101442.28;7289194;19;153259;-53
2021/09/28 11:22:06;;;;;;;;;;;;;;;21.00;74.21;101451.53;7281530;19;153174;-52
2021/09/28 11:24:33;;;;;;;;;;;;;;;20.99;74.29;101440.59;7281854;19;153259;-52
2021/09/28 11:27:03;;;;;;;;;;;;;;;21.01;74.01;101436.38;7283708;19;151888;-52
2021/09/28 11:29:36;;;;;;;;;;;;;;;21.05;74.31;101425.34;7289742;19;153108;-52
2021/09/28 11:32:05;;;;;;;;;;;;;;;21.03;74.06;101425.66;7289840;19;153224;-52
2021/09/28 11:34:33;;;;;;;;;;;;;;;21.04;74.06;101410.47;7288558;19;151974;-53
2021/09/28 11:37:20;;;;;;;;;;;;;;;21.04;74.35;101404.00;7288784;19;152111;-52
2021/09/28 11:39:48;;;;;;;;;;;;;;;21.04;74.07;101406.81;7288986;19;152290;-52
2021/09/28 11:42:16;;;;;;;;;;;;;;;21.02;74.56;101400.69;7297648;19;151923;-53
2021/09/28 11:44:46;;;;;;;;;;;;;;;21.00;74.43;101395.34;7286964;19;153936;-53
2021/09/28 11:47:15;;;;;;;;;;;;;;;20.99;74.35;101409.69;7289110;19;152105;-52
2021/09/28 11:49:45;;;;;;;;;;;;;;;20.98;74.54;101405.22;7288196;19;153772;-53
2021/09/28 11:52:12;;;;;;;;;;;;;;;20.99;74.53;101401.25;7288460;19;151931;-52
2021/09/28 11:54:41;;;;;;;;;;;;;;;20.95;74.92;101397.38;7288691;19;152506;-52
2021/09/28 11:57:17;;;;;;;;;;;;;;;20.96;74.37;101399.91;7291789;19;152836;-52
2021/09/28 11:59:47;;;;;;;;;;;;;;;20.92;74.77;101398.84;7287722;19;152132;-52
2021/09/28 12:02:16;;;;;;;;;;;;;;;20.92;74.53;101384.78;7289483;19;152210;-53
2021/09/28 12:05:03;;;;;;;;;;;;;;;20.92;74.52;101392.38;7294016;19;152675;-53
2021/09/28 12:07:57;;;;;;;;;;;;;;;20.95;74.84;101380.53;7290150;19;152056;-51
2021/09/28 12:10:22;;;;;;;;;;;;;;;20.93;74.86;101366.81;7288187;19;153409;-52
2021/09/28 12:12:51;;;;;;;;;;;;;;;20.92;74.92;101367.94;7285280;19;153789;-52
2021/09/28 12:15:20;;;;;;;;;;;;;;;20.94;74.82;101360.03;7290475;19;152071;-51
2021/09/28 12:17:47;;;;;;;;;;;;;;;20.97;74.98;101351.03;7288363;19;153489;-52
2021/09/28 12:20:18;;;;;;;;;;;;;;;20.95;74.93;101352.44;7289499;19;154157;-51
2021/09/28 12:22:48;;;;;;;;;;;;;;;20.95;75.25;101346.81;7288981;19;151900;-52
2021/09/28 12:25:22;;;;;;;;;;;;;;;20.98;74.94;101340.63;7287298;19;153556;-52
2021/09/28 12:27:52;;;;;;;;;;;;;;;20.99;74.86;101345.91;7293464;19;153027;-52
2021/09/28 12:30:19;;;;;;;;;;;;;;;21.00;75.01;101339.16;7286813;19;152016;-52
2021/09/28 12:32:48;;;;;;;;;;;;;;;20.98;75.27;101341.47;7287324;19;153260;-52
2021/09/28 12:35:22;;;;;;;;;;;;;;;21.03;75.10;101332.13;7289822;19;151822;-51